^^
Meteo Knjazevac Station Historical Data
Daily Summary for September 26, 2021 Units:  English    Metric   Both
Daily Weekly Monthly Yearly Custom
  High: Low: Average:
Temperature: 92.8 °F 59.4 °F 75.8 °F
Dew Point: 72.6 °F 57.6 °F 66 °F
Humidity: 95% 48% 74%
Wind Speed: 5mph 0mph 1.1mph
Wind Gust: 8mph - -
Wind- - South
Pressure: 30.14 in 30.09 in -
Precipitation: 0.00 in    
Historical Graphs
 
 
Tabular Data for September 26, 2021
Time Temperature Dew Point Pressure Wind Wind Speed Wind Gust Humidity Rainfall Rate (Hourly) solar Conditions
00:00 66.9 °F 62.3 °F 30.10 in West 1 mph 2 mph 85% 0.00 in 0 W/m2
00:10 66.4 °F 61.7 °F 30.10 in West 1 mph 2 mph 85% 0.00 in 0 W/m2
00:20 65.8 °F 61.2 °F 30.10 in WSW 1 mph 2 mph 85% 0.00 in 0 W/m2
00:30 65.5 °F 60.8 °F 30.10 in WNW 1 mph 3 mph 85% 0.00 in 0 W/m2
00:40 65.3 °F 61 °F 30.10 in Calm   2 mph 86% 0.00 in 0 W/m2
00:50 65.3 °F 61 °F 30.10 in Calm   1 mph 86% 0.00 in 0 W/m2
01:00 64.9 °F 60.6 °F 30.10 in Calm   2 mph 86% 0.00 in 0 W/m2
01:10 64.7 °F 61.1 °F 30.10 in WNW 1 mph 3 mph 88% 0.00 in 0 W/m2
01:20 64.4 °F 60.1 °F 30.10 in WNW 1 mph 5 mph 86% 0.00 in 0 W/m2
01:30 64 °F 60.4 °F 30.09 in WSW 1 mph 2 mph 88% 0.00 in 0 W/m2
01:40 63.7 °F 60.1 °F 30.10 in WSW 2 mph 3 mph 88% 0.00 in 0 W/m2
01:50 63.1 °F 59.8 °F 30.10 in Calm   3 mph 89% 0.00 in 0 W/m2
02:00 62.8 °F 59.5 °F 30.10 in Calm   3 mph 89% 0.00 in 0 W/m2
02:10 62.6 °F 59.3 °F 30.10 in West 2 mph 3 mph 89% 0.00 in 0 W/m2
02:20 62.6 °F 59.3 °F 30.11 in Calm   4 mph 89% 0.00 in 0 W/m2
02:30 62.6 °F 59.3 °F 30.11 in Calm   2 mph 89% 0.00 in 0 W/m2
02:40 62.6 °F 59.3 °F 30.11 in Calm     89% 0.00 in 0 W/m2
02:50 62.4 °F 59.4 °F 30.11 in Calm   1 mph 90% 0.00 in 0 W/m2
03:00 61.9 °F 58.9 °F 30.11 in WNW 1 mph 2 mph 90% 0.00 in 0 W/m2
03:10 61.9 °F 58.9 °F 30.11 in NW 1 mph 2 mph 90% 0.00 in 0 W/m2
03:20 61.9 °F 58.9 °F 30.11 in Calm     90% 0.00 in 0 W/m2
03:30 61.5 °F 58.6 °F 30.11 in West 1 mph 2 mph 90% 0.00 in 0 W/m2
03:40 61.5 °F 58.9 °F 30.11 in NNW 1 mph 2 mph 91% 0.00 in 0 W/m2
03:50 61 °F 58.3 °F 30.11 in West 1 mph 2 mph 91% 0.00 in 0 W/m2
04:00 60.8 °F 58.2 °F 30.11 in West 1 mph 2 mph 91% 0.00 in 0 W/m2
04:10 60.6 °F 58.6 °F 30.11 in WNW 1 mph 2 mph 93% 0.00 in 0 W/m2
04:20 60.4 °F 58.4 °F 30.11 in WSW 2 mph 3 mph 93% 0.00 in 0 W/m2
04:30 60.2 °F 58.2 °F 30.12 in West 2 mph 4 mph 93% 0.00 in 0 W/m2
04:40 60.2 °F 58.2 °F 30.11 in WSW 1 mph 5 mph 93% 0.00 in 0 W/m2
04:50 59.9 °F 57.8 °F 30.12 in WSW 1 mph 3 mph 93% 0.00 in 0 W/m2
05:00 59.5 °F 57.8 °F 30.12 in WSW 2 mph 5 mph 94% 0.00 in 0 W/m2
05:10 59.5 °F 57.8 °F 30.12 in West 1 mph 2 mph 94% 0.00 in 0 W/m2
05:20 59.4 °F 57.6 °F 30.12 in Calm   3 mph 94% 0.00 in 5 W/m2
05:30 59.4 °F 57.7 °F 30.12 in West 1 mph 2 mph 94% 0.00 in 12 W/m2
05:40 59.5 °F 57.8 °F 30.12 in Calm   2 mph 94% 0.00 in 22 W/m2
05:50 59.5 °F 57.8 °F 30.13 in Calm   2 mph 94% 0.00 in 30 W/m2
06:00 59.5 °F 57.8 °F 30.13 in North 1 mph 3 mph 94% 0.00 in 39 W/m2
06:10 59.7 °F 58.3 °F 30.13 in Calm   3 mph 95% 0.00 in 51 W/m2
06:20 59.9 °F 58.5 °F 30.13 in Calm   2 mph 95% 0.00 in 77 W/m2
06:30 60.1 °F 58.3 °F 30.13 in Calm   2 mph 94% 0.00 in 107 W/m2
06:40 60.3 °F 58.5 °F 30.13 in Calm   2 mph 94% 0.00 in 134 W/m2
06:50 60.4 °F 59 °F 30.13 in Calm   2 mph 95% 0.00 in 166 W/m2
07:00 60.8 °F 59.1 °F 30.14 in Calm   1 mph 94% 0.00 in 198 W/m2
07:10 61.2 °F 59.8 °F 30.14 in Calm   2 mph 95% 0.00 in 219 W/m2
07:20 61.7 °F 60 °F 30.14 in Calm   2 mph 94% 0.00 in 218 W/m2
07:30 62.3 °F 60.5 °F 30.14 in Calm   1 mph 94% 0.00 in 249 W/m2
07:40 63 °F 61.2 °F 30.14 in North 2 mph 4 mph 94% 0.00 in 265 W/m2
07:50 63.9 °F 61.8 °F 30.13 in NE 1 mph 4 mph 93% 0.00 in 308 W/m2
08:00 64.6 °F 62.8 °F 30.14 in Calm   2 mph 94% 0.00 in 346 W/m2
08:10 65.3 °F 63 °F 30.14 in North 1 mph 2 mph 92% 0.00 in 423 W/m2
08:20 66.2 °F 63.2 °F 30.14 in WNW 1 mph 2 mph 90% 0.00 in 420 W/m2
08:30 67.1 °F 64.1 °F 30.14 in North 1 mph 5 mph 90% 0.00 in 423 W/m2
08:40 68 °F 64.3 °F 30.14 in Calm   4 mph 88% 0.00 in 455 W/m2
08:50 68.9 °F 64.2 °F 30.14 in NW 1 mph 3 mph 85% 0.00 in 520 W/m2
09:00 70 °F 64.9 °F 30.14 in Calm   4 mph 84% 0.00 in 552 W/m2
09:10 71.8 °F 65.3 °F 30.14 in NNE 2 mph 6 mph 80% 0.00 in 606 W/m2
09:20 73.3 °F 66.4 °F 30.14 in North 1 mph 5 mph 79% 0.00 in 635 W/m2
09:30 74.5 °F 66.1 °F 30.14 in North 3 mph 6 mph 75% 0.00 in 655 W/m2
09:40 75.9 °F 67 °F 30.14 in NNE 1 mph 6 mph 74% 0.00 in 681 W/m2
09:50 77.1 °F 66.9 °F 30.13 in NNE 2 mph 5 mph 71% 0.00 in 714 W/m2
10:00 78.1 °F 67.1 °F 30.13 in NNE 1 mph 4 mph 69% 0.00 in 746 W/m2
10:10 79.2 °F 67.7 °F 30.13 in NNE 1 mph 5 mph 68% 0.00 in 768 W/m2
10:20 79.8 °F 68.2 °F 30.14 in North 3 mph 7 mph 68% 0.00 in 792 W/m2
10:30 80.3 °F 68.3 °F 30.14 in North 1 mph 5 mph 67% 0.00 in 808 W/m2
10:40 81.1 °F 68.3 °F 30.13 in NNE 2 mph 6 mph 65% 0.00 in 829 W/m2
10:50 81.9 °F 68.5 °F 30.13 in ENE 5 mph 7 mph 64% 0.00 in 271 W/m2
11:00 82.8 °F 69.3 °F 30.13 in NNE 1 mph 6 mph 64% 0.00 in 835 W/m2
11:10 83.3 °F 69.4 °F 30.13 in NNE 3 mph 7 mph 63% 0.00 in 879 W/m2
11:20 83.7 °F 69.3 °F 30.13 in North 3 mph 7 mph 62% 0.00 in 653 W/m2
11:30 84.2 °F 68.3 °F 30.13 in NNW 1 mph 6 mph 59% 0.00 in 908 W/m2
11:40 84.8 °F 69.4 °F 30.13 in NE 2 mph 6 mph 60% 0.00 in 922 W/m2
11:50 85.6 °F 69.7 °F 30.13 in NE 2 mph 7 mph 59% 0.00 in 931 W/m2
12:00 85.8 °F 69.3 °F 30.13 in North 1 mph 6 mph 58% 0.00 in 937 W/m2
12:10 86.2 °F 69.7 °F 30.12 in NE 3 mph 7 mph 58% 0.00 in 941 W/m2
12:20 86.5 °F 70.5 °F 30.12 in NNE 1 mph 6 mph 59% 0.00 in 944 W/m2
12:30 87.3 °F 69.6 °F 30.13 in NNE 3 mph 6 mph 56% 0.00 in 794 W/m2
12:40 87.4 °F 70.3 °F 30.13 in North 1 mph 7 mph 57% 0.00 in 946 W/m2
12:50 88 °F 70.8 °F 30.13 in North 2 mph 6 mph 57% 0.00 in 908 W/m2
13:00 88 °F 71.3 °F 30.12 in NE 2 mph 6 mph 58% 0.00 in 694 W/m2
13:10 88 °F 70.8 °F 30.12 in Calm   5 mph 57% 0.00 in 616 W/m2
13:20 88 °F 70.9 °F 30.12 in Calm   6 mph 57% 0.00 in 892 W/m2
13:30 88.2 °F 71 °F 30.12 in North 1 mph 5 mph 57% 0.00 in 850 W/m2
13:40 88.3 °F 71.2 °F 30.12 in North 1 mph 5 mph 57% 0.00 in 464 W/m2
13:50 88.3 °F 70.1 °F 30.12 in Calm   4 mph 55% 0.00 in 752 W/m2
14:00 88.7 °F 70.5 °F 30.12 in North 2 mph 6 mph 55% 0.00 in 720 W/m2
14:10 89.1 °F 69.7 °F 30.11 in North 1 mph 5 mph 53% 0.00 in 877 W/m2
14:20 89.5 °F 70.1 °F 30.11 in Calm   4 mph 53% 0.00 in 863 W/m2
14:30 90.1 °F 71.2 °F 30.11 in North 1 mph 3 mph 54% 0.00 in 846 W/m2
14:40 90.5 °F 71 °F 30.11 in NW 1 mph 3 mph 53% 0.00 in 829 W/m2
14:50 91 °F 71.5 °F 30.11 in North 1 mph 5 mph 53% 0.00 in 808 W/m2
15:00 91.2 °F 71.1 °F 30.10 in SW 2 mph 5 mph 52% 0.00 in 790 W/m2
15:10 91.4 °F 70.1 °F 30.10 in WSW 1 mph 5 mph 50% 0.00 in 769 W/m2
15:20 91.4 °F 71.9 °F 30.10 in West 2 mph 6 mph 53% 0.00 in 746 W/m2
15:30 91.8 °F 71.1 °F 30.10 in WSW 1 mph 6 mph 51% 0.00 in 690 W/m2
15:40 92.1 °F 70.2 °F 30.09 in WSW 2 mph 5 mph 49% 0.00 in 663 W/m2
15:50 91.9 °F 71.8 °F 30.09 in WSW 1 mph 5 mph 52% 0.00 in 640 W/m2
16:00 92.1 °F 70.8 °F 30.09 in SW 1 mph 4 mph 50% 0.00 in 638 W/m2
16:10 92.3 °F 71 °F 30.09 in West 1 mph 3 mph 50% 0.00 in 611 W/m2
16:20 92.7 °F 71.3 °F 30.09 in Calm   4 mph 50% 0.00 in 553 W/m2
16:30 92.8 °F 72.1 °F 30.09 in North 2 mph 5 mph 51% 0.00 in 541 W/m2
16:40 92.8 °F 70.3 °F 30.09 in North 2 mph 5 mph 48% 0.00 in 510 W/m2
16:50 92.8 °F 70.3 °F 30.09 in NNW 2 mph 5 mph 48% 0.00 in 470 W/m2
17:00 92.8 °F 70.3 °F 30.09 in North 1 mph 6 mph 48% 0.00 in 437 W/m2
17:10 92.8 °F 72.6 °F 30.09 in North 5 mph 7 mph 52% 0.00 in 405 W/m2
17:20 92.5 °F 72.3 °F 30.09 in North 3 mph 6 mph 52% 0.00 in 373 W/m2
17:30 91.9 °F 71.8 °F 30.10 in North 2 mph 8 mph 52% 0.00 in 338 W/m2
17:40 91.6 °F 72.6 °F 30.09 in NNW 3 mph 7 mph 54% 0.00 in 302 W/m2
17:50 91.2 °F 71.7 °F 30.09 in North 2 mph 6 mph 53% 0.00 in 269 W/m2
18:00 90.7 °F 71.2 °F 30.10 in North 2 mph 7 mph 53% 0.00 in 233 W/m2
18:10 90.1 °F 71.2 °F 30.09 in North 2 mph 5 mph 54% 0.00 in 203 W/m2
18:20 89.8 °F 70.9 °F 30.09 in North 1 mph 5 mph 54% 0.00 in 175 W/m2
18:30 89.2 °F 71 °F 30.09 in North 1 mph 4 mph 55% 0.00 in 144 W/m2
18:40 88.8 °F 70.5 °F 30.10 in Calm   3 mph 55% 0.00 in 71 W/m2
18:50 87.9 °F 72.3 °F 30.10 in Calm   2 mph 60% 0.00 in 50 W/m2
19:00 87 °F 72.4 °F 30.10 in Calm   1 mph 62% 0.00 in 35 W/m2
19:10 86 °F 71.5 °F 30.10 in Calm   2 mph 62% 0.00 in 29 W/m2
19:20 85.1 °F 71.1 °F 30.10 in Calm   2 mph 63% 0.00 in 19 W/m2
19:30 84.4 °F 71.3 °F 30.10 in Calm   2 mph 65% 0.00 in 12 W/m2
19:40 83.7 °F 72 °F 30.10 in South 2 mph 3 mph 68% 0.00 in 8 W/m2
19:50 82.9 °F 71.6 °F 30.10 in South 2 mph 4 mph 69% 0.00 in 4 W/m2
20:00 82 °F 71.3 °F 30.09 in South 1 mph 5 mph 70% 0.00 in 1 W/m2
20:10 81.3 °F 70.6 °F 30.09 in SSW 2 mph 4 mph 70% 0.00 in 0 W/m2
20:20 80.6 °F 70.7 °F 30.09 in SSW 2 mph 6 mph 72% 0.00 in 0 W/m2
20:30 80.2 °F 70.8 °F 30.09 in SW 1 mph 3 mph 73% 0.00 in 0 W/m2
20:40 80.1 °F 70.6 °F 30.09 in Calm   2 mph 73% 0.00 in 0 W/m2
20:50 79.7 °F 70.7 °F 30.09 in WNW 2 mph 2 mph 74% 0.00 in 0 W/m2
21:00 79.2 °F 70.5 °F 30.10 in West 2 mph 3 mph 75% 0.00 in 0 W/m2
21:10 78.6 °F 70.8 °F 30.10 in WSW 1 mph 4 mph 77% 0.00 in 0 W/m2
21:20 78 °F 70.2 °F 30.11 in SW 2 mph 4 mph 77% 0.00 in 0 W/m2
21:30 77 °F 69.6 °F 30.11 in West 3 mph 5 mph 78% 0.00 in 0 W/m2
21:40 76.5 °F 69.1 °F 30.11 in West 1 mph 4 mph 78% 0.00 in 0 W/m2
21:50 75.9 °F 68.6 °F 30.11 in SSW 1 mph 2 mph 78% 0.00 in 0 W/m2
22:00 75.6 °F 68.6 °F 30.12 in SW 2 mph 2 mph 79% 0.00 in 0 W/m2
22:10 74.9 °F 68 °F 30.12 in SW 1 mph 3 mph 79% 0.00 in 0 W/m2
22:20 74.4 °F 67.5 °F 30.12 in South 2 mph 3 mph 79% 0.00 in 0 W/m2
22:30 73.8 °F 67.3 °F 30.12 in South 2 mph 3 mph 80% 0.00 in 0 W/m2
22:40 73.4 °F 66.9 °F 30.12 in NW 1 mph 2 mph 80% 0.00 in 0 W/m2
22:50 73 °F 66.9 °F 30.12 in SSW 2 mph 4 mph 81% 0.00 in 0 W/m2
23:00 72.7 °F 66.5 °F 30.12 in Calm   2 mph 81% 0.00 in 0 W/m2
23:10 72.3 °F 66.9 °F 30.13 in Calm   2 mph 83% 0.00 in 0 W/m2
23:20 72 °F 66.9 °F 30.13 in Calm   2 mph 84% 0.00 in 0 W/m2
23:30 71.2 °F 66.2 °F 30.13 in Calm   2 mph 84% 0.00 in 0 W/m2
23:40 70.9 °F 66.1 °F 30.14 in Calm   1 mph 85% 0.00 in 0 W/m2
23:50 70.4 °F 65.7 °F 30.14 in WSW 1 mph 2 mph 85% 0.00 in 0 W/m2
Knjazevac, Serbia
Compliments of Weather Underground - 2 mb